createdAt,value
2019-06-10T00:01:23.516Z,69.60
2019-06-10T00:03:53.936Z,69.80
2019-06-10T00:06:24.343Z,70.10
2019-06-10T00:08:55.951Z,70.10
2019-06-10T00:11:26.534Z,70.40
2019-06-10T00:13:56.933Z,70.60
2019-06-10T00:16:27.369Z,70.60
2019-06-10T00:18:57.985Z,70.70
2019-06-10T00:21:30.770Z,70.80
2019-06-10T00:24:02.623Z,71.00
2019-06-10T00:26:32.952Z,71.20
2019-06-10T00:29:05.759Z,71.20
2019-06-10T00:31:35.515Z,71.40
2019-06-10T00:34:06.625Z,71.40
2019-06-10T00:36:38.211Z,71.30
2019-06-10T00:39:13.177Z,71.50
2019-06-10T00:41:42.794Z,71.50
2019-06-10T00:44:13.548Z,71.50
2019-06-10T00:46:44.003Z,71.50
2019-06-10T00:49:14.878Z,71.60
2019-06-10T00:51:45.673Z,71.60
2019-06-10T00:54:16.083Z,71.70
2019-06-10T00:56:46.550Z,71.70
2019-06-10T00:59:16.990Z,72.60
2019-06-10T01:01:47.409Z,72.50
2019-06-10T01:04:17.811Z,72.10
2019-06-10T01:06:48.269Z,72.10
2019-06-10T01:09:18.661Z,72.30
2019-06-10T01:11:51.639Z,72.50
2019-06-10T01:14:21.701Z,72.40
2019-06-10T01:16:52.211Z,72.50
2019-06-10T01:19:22.579Z,72.60
2019-06-10T01:21:53.037Z,72.60
2019-06-10T01:24:23.456Z,72.80
2019-06-10T01:26:53.959Z,72.90
2019-06-10T01:29:24.363Z,73.00
2019-06-10T01:31:54.825Z,73.10
2019-06-10T01:34:25.203Z,73.10
2019-06-10T01:36:55.649Z,73.40
2019-06-10T01:39:26.067Z,73.40
2019-06-10T01:41:56.501Z,73.40
2019-06-10T01:44:26.933Z,73.50
2019-06-10T01:46:57.427Z,73.60
2019-06-10T01:49:27.809Z,73.60
2019-06-10T01:51:58.240Z,73.60
2019-06-10T01:54:28.647Z,73.70
2019-06-10T01:57:01.347Z,73.80
2019-06-10T01:59:31.356Z,73.90
2019-06-10T02:02:05.729Z,74.00
2019-06-10T02:04:36.141Z,74.10
2019-06-10T02:07:06.548Z,74.20
2019-06-10T02:09:36.929Z,74.30
2019-06-10T02:12:07.389Z,74.30
2019-06-10T02:14:37.813Z,74.30
2019-06-10T02:17:09.721Z,74.40
2019-06-10T02:19:41.424Z,74.50
2019-06-10T02:22:14.961Z,74.50
2019-06-10T02:24:44.311Z,74.60
2019-06-10T02:27:15.969Z,74.60
2019-06-10T02:29:46.815Z,74.60
2019-06-10T02:32:22.507Z,74.60
2019-06-10T02:35:03.618Z,74.70
2019-06-10T02:37:25.542Z,74.90
2019-06-10T02:39:54.361Z,74.80
2019-06-10T02:42:34.818Z,75.00
2019-06-10T02:45:03.782Z,75.30
2019-06-10T02:47:37.934Z,76.10
2019-06-10T02:50:09.342Z,76.70
2019-06-10T02:52:39.945Z,76.60
2019-06-10T02:55:14.045Z,76.50
2019-06-10T02:57:45.013Z,76.20
2019-06-10T03:00:23.430Z,76.20
2019-06-10T03:02:48.942Z,76.50
2019-06-10T03:05:21.443Z,76.70
2019-06-10T03:07:53.270Z,77.00
2019-06-10T03:10:30.188Z,77.20
2019-06-10T03:12:56.162Z,77.40
2019-06-10T03:15:26.876Z,77.80
2019-06-10T03:17:58.342Z,78.00
2019-06-10T03:20:28.797Z,78.10
2019-06-10T03:22:59.282Z,78.40
2019-06-10T03:25:29.754Z,78.70
2019-06-10T03:28:00.148Z,78.70
2019-06-10T03:30:47.170Z,79.10
2019-06-10T03:33:05.069Z,79.30
2019-06-10T03:35:35.090Z,79.60
2019-06-10T03:38:05.611Z,79.90
2019-06-10T03:40:36.076Z,80.30
2019-06-10T03:43:06.460Z,80.40
2019-06-10T03:45:36.897Z,80.80
2019-06-10T03:48:07.299Z,80.90
2019-06-10T03:50:37.729Z,81.20
2019-06-10T03:53:08.165Z,81.40
2019-06-10T03:55:38.736Z,81.40
2019-06-10T03:58:09.117Z,81.50
2019-06-10T04:00:39.630Z,81.70
2019-06-10T04:03:12.019Z,81.80
2019-06-10T04:05:42.456Z,82.10
2019-06-10T04:08:13.220Z,82.10
2019-06-10T04:10:43.672Z,82.30
2019-06-10T04:13:14.077Z,82.30
2019-06-10T04:15:44.559Z,82.30
2019-06-10T04:18:14.978Z,82.30
2019-06-10T04:20:45.367Z,82.40
2019-06-10T04:23:15.792Z,82.50
2019-06-10T04:25:46.184Z,82.50
2019-06-10T04:28:17.770Z,82.50
2019-06-10T04:30:48.400Z,82.50
2019-06-10T04:33:18.896Z,82.50
2019-06-10T04:35:51.879Z,82.60
2019-06-10T04:38:23.383Z,82.90
2019-06-10T04:40:53.868Z,82.90
2019-06-10T04:43:26.012Z,83.10
2019-06-10T04:45:56.443Z,83.10
2019-06-10T04:48:28.102Z,83.10
2019-06-10T04:50:59.038Z,83.10
2019-06-10T04:53:29.521Z,83.10
2019-06-10T04:55:59.937Z,83.10
2019-06-10T04:58:33.061Z,83.30
2019-06-10T05:01:03.326Z,83.30
2019-06-10T05:03:33.887Z,83.40
2019-06-10T05:06:04.354Z,83.50
2019-06-10T05:08:34.733Z,83.60
2019-06-10T05:11:05.608Z,83.60
2019-06-10T05:13:36.020Z,83.70
2019-06-10T05:16:06.864Z,83.70
2019-06-10T05:18:37.277Z,83.60
2019-06-10T05:21:07.733Z,83.40
2019-06-10T05:23:38.232Z,83.40
2019-06-10T05:26:08.669Z,83.40
2019-06-10T05:28:39.060Z,83.40
2019-06-10T05:31:09.580Z,83.20
2019-06-10T05:33:42.362Z,83.10
2019-06-10T05:36:13.246Z,83.10
2019-06-10T05:38:44.270Z,83.40
2019-06-10T05:41:14.705Z,83.50
2019-06-10T05:43:45.473Z,83.60
2019-06-10T05:46:16.486Z,83.60
2019-06-10T05:48:46.870Z,83.40
2019-06-10T05:51:17.343Z,83.40
2019-06-10T05:53:47.773Z,83.30
2019-06-10T05:56:18.265Z,83.30
2019-06-10T05:58:48.763Z,83.20
2019-06-10T06:01:19.383Z,82.90
2019-06-10T06:03:52.691Z,82.50
2019-06-10T06:06:22.920Z,82.30
2019-06-10T06:08:57.894Z,83.20
2019-06-10T06:11:29.325Z,82.60
2019-06-10T06:14:02.535Z,82.50
2019-06-10T06:16:34.816Z,83.00
2019-06-10T06:19:06.775Z,83.20
2019-06-10T06:21:42.831Z,83.00
2019-06-10T06:24:09.680Z,83.00
2019-06-10T06:26:43.337Z,83.10
2019-06-10T06:29:14.273Z,83.00
2019-06-10T06:31:44.733Z,83.00
2019-06-10T06:34:15.475Z,82.80
2019-06-10T06:36:45.878Z,82.80
2019-06-10T06:39:16.325Z,82.60
2019-06-10T06:41:46.669Z,82.60
2019-06-10T06:44:17.815Z,82.50
2019-06-10T06:46:48.269Z,82.50
2019-06-10T06:49:18.857Z,82.80
2019-06-10T06:52:34.675Z,82.30
2019-06-10T06:54:53.012Z,82.20
2019-06-10T06:57:34.181Z,82.00
2019-06-10T07:00:38.301Z,81.80
2019-06-10T07:03:47.701Z,81.60
2019-06-10T07:06:19.995Z,81.70
2019-06-10T07:09:03.820Z,81.60
2019-06-10T07:11:24.287Z,81.90
2019-06-10T07:13:56.783Z,81.80
2019-06-10T07:16:27.207Z,81.50
2019-06-10T07:18:57.618Z,81.40
2019-06-10T07:21:29.158Z,81.40
2019-06-10T07:23:59.632Z,81.00
2019-06-10T07:26:32.592Z,81.00
2019-06-10T07:29:02.927Z,81.70
2019-06-10T07:31:36.128Z,80.80
2019-06-10T07:34:06.764Z,80.60
2019-06-10T07:36:37.183Z,80.50
2019-06-10T07:39:09.351Z,80.30
2019-06-10T07:41:41.321Z,80.10
2019-06-10T07:44:12.453Z,79.90
2019-06-10T07:46:45.193Z,79.60
2019-06-10T07:49:15.360Z,79.60
2019-06-10T07:51:46.611Z,79.50
2019-06-10T07:54:17.389Z,79.60
2019-06-10T07:56:50.579Z,79.30
2019-06-10T07:59:20.023Z,79.00
2019-06-10T08:01:54.294Z,78.80
2019-06-10T08:04:22.752Z,78.60
2019-06-10T08:06:53.286Z,78.40
2019-06-10T08:09:23.729Z,78.10
2019-06-10T08:11:54.178Z,77.80
2019-06-10T08:14:24.742Z,77.40
2019-06-10T08:16:56.970Z,77.20
2019-06-10T08:19:34.946Z,76.90
2019-06-10T08:21:59.689Z,76.60
2019-06-10T08:24:32.896Z,76.50
2019-06-10T08:27:03.843Z,76.30
2019-06-10T08:29:34.377Z,76.10
2019-06-10T08:32:04.883Z,76.00
2019-06-10T08:34:35.959Z,75.90
2019-06-10T08:37:06.708Z,75.70
2019-06-10T08:39:38.240Z,75.60
2019-06-10T08:42:08.826Z,75.70
2019-06-10T08:44:39.350Z,75.60
2019-06-10T08:47:12.282Z,75.70
2019-06-10T08:49:45.520Z,75.60
2019-06-10T08:52:14.454Z,75.50
2019-06-10T08:54:47.757Z,75.50
2019-06-10T08:57:17.176Z,75.50
2019-06-10T08:59:49.044Z,75.40
2019-06-10T09:02:19.810Z,75.10
2019-06-10T09:04:53.567Z,74.60
2019-06-10T09:07:23.769Z,74.30
2019-06-10T09:09:54.447Z,73.90
2019-06-10T09:12:33.015Z,73.40
2019-06-10T09:14:58.700Z,72.90
2019-06-10T09:17:29.311Z,72.60
2019-06-10T09:19:59.815Z,72.20
2019-06-10T09:22:32.580Z,72.00
2019-06-10T09:25:03.007Z,71.90
2019-06-10T09:27:33.682Z,71.80
2019-06-10T09:30:07.196Z,71.40
2019-06-10T09:32:45.868Z,71.20
2019-06-10T09:35:12.627Z,71.00
2019-06-10T09:37:48.459Z,70.60
2019-06-10T09:40:24.019Z,70.60
2019-06-10T09:42:55.568Z,70.50
2019-06-10T09:45:26.030Z,70.50
2019-06-10T09:47:59.984Z,70.30
2019-06-10T09:50:51.277Z,70.00
2019-06-10T09:53:30.129Z,69.70
2019-06-10T09:55:55.738Z,69.50
2019-06-10T09:58:28.890Z,69.10
2019-06-10T10:01:04.980Z,68.60
2019-06-10T10:03:38.015Z,68.20
2019-06-10T10:06:15.054Z,67.80
2019-06-10T10:08:46.020Z,67.40
2019-06-10T10:11:16.901Z,67.10
2019-06-10T10:13:49.465Z,66.60
2019-06-10T10:16:19.544Z,66.10
2019-06-10T10:19:00.133Z,65.80
2019-06-10T10:21:26.406Z,65.40
2019-06-10T10:24:06.875Z,65.00
2019-06-10T10:26:28.906Z,65.30
2019-06-10T10:29:13.090Z,64.10
2019-06-10T10:31:47.400Z,64.00
2019-06-10T10:34:23.605Z,64.00
2019-06-10T10:36:56.608Z,63.30
2019-06-10T10:39:46.651Z,62.40
2019-06-10T10:42:17.283Z,61.70
2019-06-10T10:44:51.914Z,61.20
2019-06-10T10:47:27.807Z,60.30
2019-06-10T10:49:58.639Z,59.80
2019-06-10T10:52:33.019Z,59.40
2019-06-10T10:55:06.806Z,58.70
2019-06-10T10:57:35.951Z,58.30
2019-06-10T11:00:09.265Z,57.50
2019-06-10T11:02:42.750Z,56.80
2019-06-10T11:05:41.451Z,56.40
2019-06-10T11:08:13.607Z,56.00
2019-06-10T11:10:47.466Z,56.00
2019-06-10T11:13:18.774Z,55.60
2019-06-10T11:15:49.307Z,55.10
2019-06-10T11:18:22.631Z,54.90
2019-06-10T11:20:51.972Z,54.50
2019-06-10T11:23:23.761Z,54.30
2019-06-10T11:25:57.044Z,54.20
2019-06-10T11:28:26.395Z,54.00
2019-06-10T11:30:58.586Z,53.80
2019-06-10T11:33:32.859Z,53.60
2019-06-10T11:36:04.557Z,54.20
2019-06-10T11:38:39.937Z,53.50
2019-06-10T11:41:13.848Z,53.30
2019-06-10T11:43:44.400Z,53.50
2019-06-10T11:46:14.851Z,53.60
2019-06-10T11:48:45.419Z,53.50
2019-06-10T11:51:16.041Z,53.60
2019-06-10T11:53:49.950Z,53.70
2019-06-10T11:56:22.310Z,53.80
2019-06-10T11:58:56.270Z,53.90
2019-06-10T12:01:25.222Z,53.80
2019-06-10T12:03:58.834Z,53.90
2019-06-10T12:06:27.910Z,53.80
2019-06-10T12:09:02.794Z,53.80
2019-06-10T12:11:31.895Z,53.90
2019-06-10T12:14:04.458Z,54.00
2019-06-10T12:19:08.311Z,54.10
2019-06-10T12:21:38.913Z,53.80
2019-06-10T12:24:09.380Z,53.70
2019-06-10T12:26:43.242Z,53.60
2019-06-10T12:29:12.580Z,53.30
2019-06-10T12:31:43.139Z,53.20
2019-06-10T12:34:13.604Z,53.10
2019-06-10T12:36:43.999Z,52.70
2019-06-10T12:39:17.193Z,52.40
2019-06-10T12:41:46.844Z,52.00
2019-06-10T12:44:57.194Z,51.80
2019-06-10T12:47:27.708Z,51.40
2019-06-10T12:49:59.125Z,51.30
2019-06-10T12:52:29.729Z,50.70
2019-06-10T12:55:01.045Z,50.20
2019-06-10T12:57:32.946Z,49.70
2019-06-10T13:00:15.788Z,49.20
2019-06-10T13:02:36.520Z,48.60
2019-06-10T13:05:12.068Z,48.10
2019-06-10T13:07:43.866Z,47.90
2019-06-10T13:10:42.974Z,47.50
2019-06-10T13:13:12.880Z,47.30
2019-06-10T13:15:43.817Z,47.50
2019-06-10T13:18:19.324Z,47.30
2019-06-10T13:20:46.633Z,47.10
2019-06-10T13:23:25.394Z,47.00
2019-06-10T13:25:55.492Z,46.80
2019-06-10T13:28:22.407Z,46.60
2019-06-10T13:30:54.620Z,46.20
2019-06-10T13:33:25.461Z,45.70
2019-06-10T13:35:56.822Z,45.40
2019-06-10T13:38:29.204Z,44.90
2019-06-10T13:40:59.722Z,44.70
2019-06-10T13:43:33.039Z,44.50
2019-06-10T13:46:05.229Z,43.80
2019-06-10T13:48:35.142Z,43.00
2019-06-10T13:51:09.138Z,42.20
2019-06-10T13:53:37.970Z,41.50
2019-06-10T13:56:32.106Z,40.90
2019-06-10T13:58:46.118Z,40.40
2019-06-10T14:01:21.566Z,39.80
2019-06-10T14:03:46.826Z,39.40
2019-06-10T14:06:35.869Z,39.00
2019-06-10T14:08:54.572Z,38.60
2019-06-10T14:11:26.220Z,38.10
2019-06-10T14:13:54.210Z,37.30
2019-06-10T14:16:24.902Z,36.80
2019-06-10T14:18:55.468Z,36.10
2019-06-10T14:21:26.551Z,35.30
2019-06-10T14:23:57.057Z,34.60
2019-06-10T14:26:39.962Z,34.10
2019-06-10T14:28:59.825Z,33.70
2019-06-10T14:31:42.904Z,33.30
2019-06-10T14:34:04.931Z,32.50
2019-06-10T14:36:34.933Z,31.90
2019-06-10T14:39:08.124Z,31.50
2019-06-10T14:41:38.991Z,30.90
2019-06-10T14:44:11.488Z,30.60
2019-06-10T14:46:43.310Z,30.30
2019-06-10T14:49:16.607Z,30.00
2019-06-10T14:51:46.757Z,30.00
2019-06-10T14:54:18.275Z,29.70
2019-06-10T14:56:53.677Z,29.30
2019-06-10T14:59:22.421Z,28.90
2019-06-10T15:01:54.456Z,28.60
2019-06-10T15:04:25.029Z,28.20
2019-06-10T15:06:55.586Z,28.30
2019-06-10T15:09:26.501Z,27.90
2019-06-10T15:11:57.247Z,27.80
2019-06-10T15:14:27.973Z,27.90
2019-06-10T15:16:58.586Z,28.10
2019-06-10T15:19:29.362Z,28.60
2019-06-10T15:21:59.879Z,29.10
2019-06-10T15:24:30.355Z,29.70
2019-06-10T15:27:10.088Z,30.40
2019-06-10T15:29:33.227Z,31.20
2019-06-10T15:32:14.099Z,32.10
2019-06-10T15:34:35.989Z,33.10
2019-06-10T15:37:06.499Z,33.90
2019-06-10T15:39:37.087Z,34.80
2019-06-10T15:42:09.389Z,35.50
2019-06-10T15:44:51.359Z,36.20
2019-06-10T15:47:16.085Z,36.90
2019-06-10T15:49:46.585Z,37.80
2019-06-10T15:52:19.115Z,38.80
2019-06-10T15:54:49.586Z,39.40
2019-06-10T15:57:36.607Z,39.80
2019-06-10T15:59:54.120Z,40.70
2019-06-10T16:02:25.614Z,42.70
2019-06-10T16:04:56.477Z,44.30
2019-06-10T16:07:26.980Z,45.60
2019-06-10T16:09:57.497Z,47.60
2019-06-10T16:12:28.006Z,49.20
2019-06-10T16:14:58.510Z,50.50
2019-06-10T16:17:33.118Z,51.10
2019-06-10T16:20:03.816Z,51.90
2019-06-10T16:22:34.443Z,52.70
2019-06-10T16:25:05.229Z,53.10
2019-06-10T16:27:47.120Z,54.70
2019-06-10T16:30:09.773Z,56.10
2019-06-10T16:32:40.439Z,56.60
2019-06-10T16:35:13.086Z,57.50
2019-06-10T16:37:45.335Z,58.50
2019-06-10T16:40:17.137Z,59.70
2019-06-10T16:42:47.682Z,61.50
2019-06-10T16:45:21.317Z,63.90
2019-06-10T16:47:53.036Z,65.50
2019-06-10T16:50:25.682Z,67.00
2019-06-10T16:52:55.454Z,68.30
2019-06-10T16:55:27.246Z,69.50
2019-06-10T16:57:59.706Z,70.50
2019-06-10T17:00:31.525Z,71.60
2019-06-10T17:03:02.270Z,72.70
2019-06-10T17:05:33.203Z,73.70
2019-06-10T17:08:03.837Z,74.70
2019-06-10T17:10:34.632Z,75.60
2019-06-10T17:13:07.370Z,76.50
2019-06-10T17:15:42.332Z,77.40
2019-06-10T17:18:14.870Z,78.10
2019-06-10T17:20:45.498Z,78.90
2019-06-10T17:23:26.435Z,79.70
2019-06-10T17:25:57.072Z,80.30
2019-06-10T17:28:31.725Z,80.60
2019-06-10T17:31:00.522Z,80.90
2019-06-10T17:33:34.671Z,81.50
2019-06-10T17:36:03.731Z,81.80
2019-06-10T17:38:34.533Z,82.10
2019-06-10T17:41:05.058Z,82.40
2019-06-10T17:43:35.683Z,82.70
2019-06-10T17:46:08.205Z,83.00
2019-06-10T17:48:38.841Z,83.40
2019-06-10T17:51:13.070Z,83.90
2019-06-10T17:53:43.612Z,84.10
2019-06-10T17:56:14.107Z,84.30
2019-06-10T17:58:53.804Z,84.60
2019-06-10T18:01:17.560Z,84.80
2019-06-10T18:03:48.481Z,85.10
2019-06-10T18:06:19.622Z,86.20
2019-06-10T18:08:52.718Z,85.70
2019-06-10T18:11:34.121Z,85.70
2019-06-10T18:14:04.934Z,85.70
2019-06-10T18:16:36.709Z,85.80
2019-06-10T18:19:07.773Z,86.20
2019-06-10T18:21:41.332Z,86.20
2019-06-10T18:24:12.736Z,86.40
2019-06-10T18:26:43.854Z,86.60
2019-06-10T18:29:15.398Z,86.80
2019-06-10T18:31:45.968Z,87.00
2019-06-10T18:34:16.468Z,87.30
2019-06-10T18:36:48.720Z,87.30
2019-06-10T18:39:22.806Z,87.70
2019-06-10T18:41:53.103Z,87.80
2019-06-10T18:44:26.441Z,87.90
2019-06-10T18:46:55.824Z,88.20
2019-06-10T18:49:30.040Z,88.40
2019-06-10T18:52:00.963Z,88.70
2019-06-10T18:54:33.851Z,88.90
2019-06-10T18:57:04.037Z,89.10
2019-06-10T18:59:36.652Z,89.20
2019-06-10T19:02:07.095Z,89.20
2019-06-10T19:04:38.723Z,89.30
2019-06-10T19:07:10.089Z,89.50
2019-06-10T19:09:47.599Z,89.60
2019-06-10T19:12:13.535Z,89.70
2019-06-10T19:14:52.162Z,90.00
2019-06-10T19:17:23.164Z,89.80
2019-06-10T19:19:54.096Z,90.00
2019-06-10T19:22:24.911Z,90.00
2019-06-10T19:24:55.628Z,90.00
2019-06-10T19:27:26.220Z,90.00
2019-06-10T19:29:56.895Z,90.10
2019-06-10T19:32:27.600Z,90.20
2019-06-10T19:35:02.691Z,90.20
2019-06-10T19:37:35.411Z,90.20
2019-06-10T19:40:06.334Z,90.30
2019-06-10T19:42:38.489Z,90.30
2019-06-10T19:45:12.351Z,90.30
2019-06-10T19:47:45.594Z,90.30
2019-06-10T19:50:15.446Z,90.40
2019-06-10T19:52:46.089Z,90.50
2019-06-10T19:55:16.993Z,90.40
2019-06-10T19:57:47.828Z,90.50
2019-06-10T20:00:24.004Z,90.60
2019-06-10T20:02:54.669Z,90.60
2019-06-10T20:05:25.668Z,90.60
2019-06-10T20:07:56.302Z,90.60
2019-06-10T20:10:27.495Z,90.70
2019-06-10T20:12:58.253Z,90.60
2019-06-10T20:15:28.987Z,90.70
2019-06-10T20:17:59.963Z,90.70
2019-06-10T20:20:33.117Z,90.70
2019-06-10T20:23:03.326Z,90.80
2019-06-10T20:25:36.908Z,90.80
2019-06-10T20:28:08.925Z,90.80
2019-06-10T20:30:43.342Z,90.80
2019-06-10T20:33:35.891Z,90.80
2019-06-10T20:36:07.598Z,90.80
2019-06-10T20:38:37.770Z,90.80
2019-06-10T20:41:08.835Z,90.80
2019-06-10T20:43:39.398Z,90.80
2019-06-10T20:46:12.797Z,90.90
2019-06-10T20:48:45.450Z,90.90
2019-06-10T20:51:14.885Z,90.90
2019-06-10T20:53:48.001Z,90.90
2019-06-10T20:56:20.431Z,90.90
2019-06-10T20:58:52.465Z,91.00
2019-06-10T21:01:25.434Z,91.00
2019-06-10T21:03:56.260Z,91.00
2019-06-10T21:06:28.152Z,91.00
2019-06-10T21:09:00.081Z,91.10
2019-06-10T21:11:32.218Z,91.10
2019-06-10T21:14:03.278Z,91.10
2019-06-10T21:16:34.521Z,91.10
2019-06-10T21:19:07.164Z,91.20
2019-06-10T21:21:37.807Z,91.20
2019-06-10T21:24:08.355Z,91.10
2019-06-10T21:26:38.888Z,91.20
2019-06-10T21:29:12.749Z,91.20
2019-06-10T21:31:45.755Z,91.20
2019-06-10T21:34:15.964Z,91.20
2019-06-10T21:36:54.010Z,91.30
2019-06-10T21:39:22.881Z,91.30
2019-06-10T21:41:54.583Z,91.30
2019-06-10T21:44:25.305Z,91.30
2019-06-10T21:46:55.808Z,91.30
2019-06-10T21:49:26.269Z,91.30
2019-06-10T21:51:57.339Z,91.30
2019-06-10T21:54:27.885Z,91.30
2019-06-10T21:56:58.462Z,91.30
2019-06-10T21:59:28.948Z,91.20
2019-06-10T22:01:59.438Z,91.20
2019-06-10T22:04:32.506Z,91.20
2019-06-10T22:07:03.160Z,91.20
2019-06-10T22:09:34.016Z,91.20
2019-06-10T22:12:04.546Z,91.20
2019-06-10T22:14:35.088Z,91.20
2019-06-10T22:17:05.796Z,91.20
2019-06-10T22:19:36.306Z,91.20
2019-06-10T22:22:07.163Z,91.20
2019-06-10T22:24:37.612Z,91.30
2019-06-10T22:27:08.942Z,91.40
2019-06-10T22:29:39.430Z,91.40
2019-06-10T22:32:09.984Z,91.40
2019-06-10T22:34:42.151Z,91.40
2019-06-10T22:37:12.856Z,91.40
2019-06-10T22:39:45.656Z,91.40
2019-06-10T22:42:16.210Z,91.40
2019-06-10T22:44:47.371Z,91.40
2019-06-10T22:47:17.973Z,91.90
2019-06-10T22:49:48.453Z,91.50
2019-06-10T22:52:19.259Z,91.60
2019-06-10T22:54:55.152Z,91.60
2019-06-10T22:57:24.545Z,91.70
2019-06-10T22:59:56.532Z,91.80
2019-06-10T23:02:27.336Z,91.80
2019-06-10T23:04:59.917Z,91.80
2019-06-10T23:07:30.114Z,91.80
2019-06-10T23:10:03.060Z,91.90
2019-06-10T23:12:32.890Z,91.90
2019-06-10T23:15:03.378Z,91.90
2019-06-10T23:17:33.998Z,91.90
2019-06-10T23:20:04.835Z,91.90
2019-06-10T23:22:35.343Z,91.90
2019-06-10T23:25:06.070Z,91.90
2019-06-10T23:27:36.559Z,91.90
2019-06-10T23:30:11.723Z,91.90
2019-06-10T23:32:42.128Z,91.90
2019-06-10T23:35:12.445Z,91.90
2019-06-10T23:37:43.070Z,91.90
2019-06-10T23:40:13.608Z,91.90
2019-06-10T23:42:44.087Z,91.90
2019-06-10T23:45:14.564Z,91.90
2019-06-10T23:47:45.041Z,91.90
2019-06-10T23:50:15.512Z,91.90
2019-06-10T23:52:45.964Z,91.90
2019-06-10T23:55:16.526Z,91.90
2019-06-10T23:57:47.190Z,91.90
